Time;durP1;ratioP1;P1;durP2;ratioP2;P2;SDS_P1;SDS_P2;PMS_P1;PMS_P2;Temp;Humidity;BMP_temperature;BMP_pressure;BME280_temperature;BME280_humidity;BME280_pressure;Samples;Min_cycle;Max_cycle;Signal;HPM_P1;HPM_P2
2021/03/02 00:00:23;;;;;;;38.73;25.02;;;;;;;10.43;52.11;101824.13;2429078;81;25609;-78
2021/03/02 00:03:45;;;;;;;35.90;23.27;;;;;;;10.42;52.08;101819.70;2431413;81;25714;-75
2021/03/02 00:07:07;;;;;;;32.73;23.55;;;;;;;10.43;52.10;101823.20;2431333;81;25347;-75
2021/03/02 00:10:29;;;;;;;38.67;24.65;;;;;;;10.42;52.08;101828.84;2431345;81;25669;-74
2021/03/02 00:13:50;;;;;;;33.73;23.38;;;;;;;10.43;52.05;101832.33;2429234;81;25202;-74
2021/03/02 00:17:44;;;;;;;31.65;22.87;;;;;;;10.42;52.06;101811.89;2431230;81;25503;-76
2021/03/02 00:21:22;;;;;;;31.07;22.95;;;;;;;10.40;51.99;101825.28;2431088;81;25571;-76
2021/03/02 00:24:46;;;;;;;37.05;22.60;;;;;;;10.36;52.02;101823.33;2429153;81;25505;-84
2021/03/02 00:28:11;;;;;;;33.60;21.85;;;;;;;10.36;52.01;101824.25;2431452;81;25595;-80
2021/03/02 00:31:35;;;;;;;30.05;21.55;;;;;;;10.35;52.02;101820.24;2427452;81;25674;-75
2021/03/02 00:34:58;;;;;;;32.13;22.22;;;;;;;10.34;52.00;101811.53;2426399;80;25549;-75
2021/03/02 00:38:20;;;;;;;31.48;22.90;;;;;;;10.34;51.99;101806.73;2424446;81;25580;-77
2021/03/02 00:41:43;;;;;;;29.60;21.35;;;;;;;10.33;51.98;101798.44;2426526;81;25366;-81
2021/03/02 00:45:06;;;;;;;34.00;21.37;;;;;;;10.30;52.00;101788.75;2426623;81;26108;-83
2021/03/02 00:48:29;;;;;;;30.15;22.20;;;;;;;10.30;51.96;101782.23;2426594;81;25653;-74
2021/03/02 00:51:51;;;;;;;32.83;20.08;;;;;;;10.25;51.95;101764.13;2424189;81;25442;-75
2021/03/02 00:55:12;;;;;;;29.82;20.40;;;;;;;10.25;52.00;101758.92;2426312;81;25352;-80
2021/03/02 00:58:37;;;;;;;28.77;20.00;;;;;;;10.25;51.91;101758.03;2426366;81;25610;-75
2021/03/02 01:01:58;;;;;;;28.73;19.87;;;;;;;10.22;51.93;101754.87;2426429;81;25608;-78
2021/03/02 01:05:20;;;;;;;31.00;20.20;;;;;;;10.20;51.97;101761.73;2423983;81;25804;-76
2021/03/02 01:08:42;;;;;;;27.35;19.57;;;;;;;10.18;51.96;101759.05;2426183;81;25391;-76
2021/03/02 01:12:06;;;;;;;24.18;18.65;;;;;;;10.19;52.01;101771.66;2426314;81;25720;-81
2021/03/02 01:15:29;;;;;;;28.42;19.57;;;;;;;10.18;52.01;101763.37;2426128;81;25713;-75
2021/03/02 01:18:51;;;;;;;28.50;19.82;;;;;;;10.20;51.99;101756.94;2424202;81;25760;-85
2021/03/02 01:22:12;;;;;;;28.05;19.02;;;;;;;10.18;51.99;101757.74;2426275;81;25579;-76
2021/03/02 01:25:33;;;;;;;28.05;17.70;;;;;;;10.20;51.99;101760.44;2426236;81;25679;-80
2021/03/02 01:28:55;;;;;;;28.35;19.65;;;;;;;10.20;51.96;101756.53;2426590;81;25605;-75
2021/03/02 01:32:17;;;;;;;26.68;18.23;;;;;;;10.21;51.96;101757.41;2425418;81;25761;-74
2021/03/02 01:35:38;;;;;;;25.37;18.10;;;;;;;10.18;51.96;101751.64;2425931;80;25553;-77
2021/03/02 01:39:00;;;;;;;28.87;18.27;;;;;;;10.19;51.98;101742.98;2427331;81;25584;-79
2021/03/02 01:42:22;;;;;;;29.10;19.32;;;;;;;10.18;51.97;101738.19;2390386;82;25840;-75
2021/03/02 01:45:44;;;;;;;25.12;18.12;;;;;;;10.18;51.99;101741.22;2390396;82;25763;-78
2021/03/02 01:49:06;;;;;;;32.17;19.50;;;;;;;10.17;51.96;101740.75;2390420;82;25767;-76
2021/03/02 01:52:28;;;;;;;29.80;19.35;;;;;;;10.16;51.95;101725.94;2390626;82;25632;-76
2021/03/02 01:55:50;;;;;;;26.85;17.70;;;;;;;10.14;51.94;101719.75;2427564;81;25564;-82
2021/03/02 01:59:12;;;;;;;32.17;18.27;;;;;;;10.14;52.02;101718.44;2427622;81;25327;-77
2021/03/02 02:02:40;;;;;;;27.67;19.52;;;;;;;10.12;52.03;101707.97;2427091;81;25584;-77
2021/03/02 02:06:10;;;;;;;29.80;19.75;;;;;;;10.12;52.06;101718.39;2401113;81;25535;-74
2021/03/02 02:09:48;;;;;;;27.25;18.70;;;;;;;10.13;52.07;101711.45;2427186;81;25151;-76
2021/03/02 02:13:34;;;;;;;35.67;19.93;;;;;;;10.11;52.09;101714.39;2427132;80;25682;-74
2021/03/02 02:16:59;;;;;;;29.05;19.77;;;;;;;10.10;52.12;101701.78;2426569;81;25646;-74
2021/03/02 02:21:05;;;;;;;23.77;17.55;;;;;;;10.08;52.13;101690.38;2426542;81;25596;-75
2021/03/02 02:24:28;;;;;;;28.65;18.52;;;;;;;10.08;52.16;101686.88;2426862;81;25706;-74
2021/03/02 02:27:54;;;;;;;26.62;17.95;;;;;;;10.07;52.19;101683.39;2427244;81;25791;-81
2021/03/02 02:31:19;;;;;;;30.52;19.35;;;;;;;10.08;52.21;101687.77;2427131;81;25678;-83
2021/03/02 02:34:42;;;;;;;31.48;19.77;;;;;;;10.09;52.18;101682.14;2427161;81;25631;-78
2021/03/02 02:38:06;;;;;;;34.67;20.70;;;;;;;10.05;52.25;101683.72;2426458;81;25648;-80
2021/03/02 02:41:29;;;;;;;30.10;20.82;;;;;;;10.06;52.25;101686.83;2469610;80;25334;-75
2021/03/02 02:44:54;;;;;;;31.77;20.37;;;;;;;10.06;52.32;101683.33;2468618;80;25643;-73
2021/03/02 02:48:17;;;;;;;31.45;19.23;;;;;;;10.06;52.30;101688.13;2469301;80;25295;-76
2021/03/02 02:51:39;;;;;;;34.23;19.82;;;;;;;10.08;52.33;101698.61;2469372;80;25666;-82
2021/03/02 02:55:02;;;;;;;33.73;19.60;;;;;;;10.08;52.31;101701.21;2469108;80;25239;-75
2021/03/02 02:58:29;;;;;;;30.48;18.90;;;;;;;10.08;52.33;101690.80;2439785;80;25340;-76
2021/03/02 03:02:05;;;;;;;34.07;20.10;;;;;;;10.12;52.32;101702.75;2549529;76;25447;-76
2021/03/02 03:05:30;;;;;;;31.30;20.05;;;;;;;10.07;52.33;101699.44;2509699;78;25771;-76
2021/03/02 03:08:52;;;;;;;31.60;20.02;;;;;;;10.06;52.38;101706.37;2509525;78;25785;-75
2021/03/02 03:12:15;;;;;;;32.23;20.40;;;;;;;10.06;52.37;101700.27;2509957;78;25487;-75
2021/03/02 03:15:43;;;;;;;32.03;19.42;;;;;;;10.06;52.38;101693.34;2509751;78;25601;-75
2021/03/02 03:19:08;;;;;;;34.70;20.40;;;;;;;10.09;52.38;101692.56;2478290;78;25418;-81
2021/03/02 03:22:30;;;;;;;32.35;19.00;;;;;;;10.08;52.39;101696.89;2509627;78;25645;-76
2021/03/02 03:25:53;;;;;;;35.68;20.72;;;;;;;10.09;52.40;101706.90;2509912;78;25611;-76
2021/03/02 03:29:16;;;;;;;32.03;21.00;;;;;;;10.08;52.40;101711.22;2509518;78;25389;-75
2021/03/02 03:32:42;;;;;;;35.15;20.27;;;;;;;10.09;52.43;101706.90;2509705;78;25547;-79
2021/03/02 03:36:08;;;;;;;34.18;21.55;;;;;;;10.10;52.42;101706.09;2492174;77;25407;-75
2021/03/02 03:39:29;;;;;;;34.85;19.98;;;;;;;10.09;52.39;101701.69;2465223;79;25495;-76
2021/03/02 03:42:51;;;;;;;33.67;20.50;;;;;;;10.10;52.43;101703.50;2465061;80;25500;-76
2021/03/02 03:46:12;;;;;;;32.38;19.20;;;;;;;10.11;52.44;101702.66;2465181;80;25659;-75
2021/03/02 03:49:34;;;;;;;36.28;21.27;;;;;;;10.11;52.43;101707.87;2465076;80;25310;-75
2021/03/02 03:53:00;;;;;;;38.10;22.60;;;;;;;10.11;52.44;101702.66;2464911;80;25609;-77
2021/03/02 03:56:23;;;;;;;32.33;19.87;;;;;;;10.12;52.42;101702.75;2465028;80;25561;-77
2021/03/02 03:59:46;;;;;;;37.23;22.20;;;;;;;10.10;52.45;101695.67;2464977;78;25492;-75
2021/03/02 04:03:07;;;;;;;31.17;19.87;;;;;;;10.11;52.46;101686.61;2434576;80;25686;-77
2021/03/02 04:06:33;;;;;;;34.25;21.05;;;;;;;10.10;52.47;101683.53;2464948;80;25583;-84
2021/03/02 04:09:55;;;;;;;32.93;22.82;;;;;;;10.11;52.46;101685.72;2465001;80;25117;-75
2021/03/02 04:13:17;;;;;;;35.35;20.85;;;;;;;10.11;52.49;101674.00;2464264;80;25480;-74
2021/03/02 04:16:39;;;;;;;32.73;21.45;;;;;;;10.12;52.49;101674.47;2464333;80;25535;-75
2021/03/02 04:20:00;;;;;;;33.63;21.30;;;;;;;10.13;52.48;101668.45;2464185;80;25412;-87
2021/03/02 04:23:22;;;;;;;36.30;21.73;;;;;;;10.13;52.49;101673.67;2464206;80;25705;-74
2021/03/02 04:26:43;;;;;;;39.00;21.33;;;;;;;10.15;52.50;101673.31;2464281;80;25579;-81
2021/03/02 04:30:06;;;;;;;34.40;20.48;;;;;;;10.15;52.46;101657.67;2464062;78;25354;-85
2021/03/02 04:33:28;;;;;;;34.15;21.27;;;;;;;10.14;52.48;101662.00;2464275;80;25540;-87
2021/03/02 04:36:49;;;;;;;39.27;23.35;;;;;;;10.15;52.48;101662.89;2463815;79;25602;-76
2021/03/02 04:40:12;;;;;;;35.80;22.20;;;;;;;10.14;52.46;101656.78;2464185;80;25650;-80
2021/03/02 04:43:34;;;;;;;37.03;23.40;;;;;;;10.14;52.51;101653.30;2464289;80;25492;-77
2021/03/02 04:46:55;;;;;;;41.70;23.10;;;;;;;10.13;52.52;101653.71;2464110;80;25579;-75
2021/03/02 04:50:17;;;;;;;32.38;21.27;;;;;;;10.13;52.52;101660.23;2464057;80;25374;-75
2021/03/02 04:53:38;;;;;;;36.28;21.80;;;;;;;10.14;52.51;101651.98;2464009;80;25547;-77
2021/03/02 04:56:59;;;;;;;34.95;21.45;;;;;;;10.14;52.51;101656.78;2464281;80;25674;-75
2021/03/02 05:00:22;;;;;;;35.28;22.98;;;;;;;10.14;52.53;101640.27;2467756;78;25400;-80
2021/03/02 05:03:43;;;;;;;37.40;22.22;;;;;;;10.11;52.54;101641.42;2476497;79;25625;-77
2021/03/02 05:07:05;;;;;;;33.50;21.62;;;;;;;10.11;52.60;101642.31;2476474;79;25623;-81
2021/03/02 05:10:29;;;;;;;34.35;22.05;;;;;;;10.10;52.61;101639.23;2476409;79;25534;-74
2021/03/02 05:13:51;;;;;;;34.43;21.93;;;;;;;10.12;52.63;101641.89;2476512;79;25717;-75
2021/03/02 05:17:12;;;;;;;36.98;22.58;;;;;;;10.13;52.62;101635.47;2476475;79;25439;-75
2021/03/02 05:20:34;;;;;;;34.58;22.65;;;;;;;10.11;52.59;101631.89;2476544;79;25159;-76
2021/03/02 05:23:57;;;;;;;37.03;21.68;;;;;;;10.12;52.63;101627.56;2475368;79;25209;-75
2021/03/02 05:27:19;;;;;;;37.23;22.35;;;;;;;10.12;52.63;101624.58;2476428;79;25184;-81
2021/03/02 05:30:41;;;;;;;34.35;21.33;;;;;;;10.12;52.63;101621.97;2476484;79;25571;-74
2021/03/02 05:34:03;;;;;;;33.15;21.30;;;;;;;10.12;52.64;101623.66;2476571;79;25552;-81
2021/03/02 05:37:25;;;;;;;35.15;22.40;;;;;;;10.13;52.67;101626.34;2476449;78;25531;-77
2021/03/02 05:40:47;;;;;;;34.67;22.48;;;;;;;10.14;52.64;101628.54;2476478;78;26092;-78
2021/03/02 05:44:12;;;;;;;35.05;21.97;;;;;;;10.14;52.64;101624.62;2476120;79;25661;-78
2021/03/02 05:47:34;;;;;;;36.55;21.52;;;;;;;10.14;52.66;101628.54;2476644;79;25697;-76
2021/03/02 05:50:59;;;;;;;38.70;23.47;;;;;;;10.15;52.67;101622.49;2476516;79;25626;-75
2021/03/02 05:54:20;;;;;;;32.55;21.42;;;;;;;10.14;52.66;101617.70;2476309;78;25755;-77
2021/03/02 05:57:42;;;;;;;33.00;21.10;;;;;;;10.15;52.67;101618.58;2476344;79;25474;-74
2021/03/02 06:01:05;;;;;;;34.98;21.80;;;;;;;10.17;52.66;101616.53;2476516;79;25346;-78
2021/03/02 06:04:30;;;;;;;33.75;21.97;;;;;;;10.20;52.67;101614.91;2476431;79;25583;-75
2021/03/02 06:07:51;;;;;;;38.10;22.90;;;;;;;10.22;52.60;101614.13;2476302;79;25633;-76
2021/03/02 06:11:35;;;;;;;35.17;21.52;;;;;;;10.23;52.60;101610.72;2476387;79;25478;-82
2021/03/02 06:15:07;;;;;;;30.72;20.52;;;;;;;10.24;52.58;101617.70;2476586;79;25680;-76
2021/03/02 06:18:28;;;;;;;33.95;22.20;;;;;;;10.26;52.58;101613.88;2476517;79;25555;-84
2021/03/02 06:21:50;;;;;;;30.50;22.15;;;;;;;10.27;52.56;101608.75;2476421;79;25735;-80
2021/03/02 06:25:28;;;;;;;38.00;22.60;;;;;;;10.28;52.56;101616.16;2476442;79;25516;-74
2021/03/02 06:28:58;;;;;;;36.80;22.42;;;;;;;10.28;52.57;101626.16;2431915;81;25800;-75
2021/03/02 06:32:40;;;;;;;35.53;22.20;;;;;;;10.35;52.56;101625.61;2575400;76;25504;-77
2021/03/02 06:36:08;;;;;;;35.33;21.50;;;;;;;10.32;52.54;101617.65;2524293;78;25547;-79
2021/03/02 06:39:41;;;;;;;32.53;22.20;;;;;;;10.35;52.52;101620.39;2496269;78;25806;-80
2021/03/02 06:43:00;;;;;;;36.30;22.15;;;;;;;10.37;52.47;101615.27;2479877;78;25333;-86
2021/03/02 06:46:28;;;;;;;29.90;20.55;;;;;;;10.38;52.48;101617.93;2447667;80;25592;-82
2021/03/02 06:49:50;;;;;;;31.95;21.10;;;;;;;10.40;52.46;101608.89;2469757;78;25472;-88
2021/03/02 06:53:12;;;;;;;34.00;21.77;;;;;;;10.42;52.42;101593.30;2469152;79;25642;-80
2021/03/02 06:56:36;;;;;;;35.23;22.02;;;;;;;10.42;52.43;101595.91;2472982;80;25580;-78
2021/03/02 07:00:02;;;;;;;35.38;21.95;;;;;;;10.43;52.41;101596.37;2475922;78;25321;-78
2021/03/02 07:03:32;;;;;;;37.13;21.55;;;;;;;10.45;52.45;101598.65;2483000;78;25475;-82
2021/03/02 07:06:55;;;;;;;38.17;21.30;;;;;;;10.48;52.43;101593.16;2428868;81;25629;-76
2021/03/02 07:10:17;;;;;;;33.50;21.45;;;;;;;10.50;52.40;101590.63;2405042;81;25671;-77
2021/03/02 07:13:39;;;;;;;38.20;22.73;;;;;;;10.51;52.40;101589.80;2443384;80;25596;-86
2021/03/02 07:17:01;;;;;;;35.80;23.20;;;;;;;10.53;52.40;101589.42;2442873;80;25729;-77
2021/03/02 07:20:25;;;;;;;42.00;22.87;;;;;;;10.55;52.35;101581.27;2442714;80;25553;-83
2021/03/02 07:23:47;;;;;;;38.70;23.20;;;;;;;10.58;52.33;101590.53;2443175;80;25666;-79
2021/03/02 07:27:10;;;;;;;42.30;23.90;;;;;;;10.60;52.30;101576.74;2443143;81;25489;-78
2021/03/02 07:30:32;;;;;;;39.18;23.50;;;;;;;10.64;52.30;101569.94;2440495;81;25603;-80
2021/03/02 07:33:55;;;;;;;37.65;22.90;;;;;;;10.69;52.23;101587.95;2453947;80;25280;-82
2021/03/02 07:37:23;;;;;;;35.28;21.95;;;;;;;10.75;52.22;101593.86;2458540;80;25706;-87
2021/03/02 07:40:52;;;;;;;38.90;23.18;;;;;;;10.80;52.13;101610.58;2457308;80;25552;-77
2021/03/02 07:44:14;;;;;;;40.50;23.57;;;;;;;10.82;52.07;101616.34;2456260;80;25543;-80
2021/03/02 07:47:49;;;;;;;38.20;22.77;;;;;;;10.85;52.08;101624.30;2457089;80;25638;-81
2021/03/02 07:51:21;;;;;;;36.28;24.00;;;;;;;10.88;52.03;101620.95;2456428;80;25616;-78
2021/03/02 07:54:45;;;;;;;39.03;23.50;;;;;;;10.91;52.03;101609.33;2448306;80;25772;-77
2021/03/02 07:58:21;;;;;;;41.92;24.95;;;;;;;11.00;51.92;101615.33;2434075;81;25620;-78
2021/03/02 08:01:43;;;;;;;46.37;25.17;;;;;;;11.04;51.90;101603.80;2434981;81;25271;-78
2021/03/02 08:05:29;;;;;;;42.88;24.55;;;;;;;11.11;51.82;101609.74;2426147;81;25547;-78
2021/03/02 08:08:52;;;;;;;43.65;26.30;;;;;;;11.16;51.74;101604.70;2426047;81;25595;-76
2021/03/02 08:12:31;;;;;;;43.63;26.68;;;;;;;11.23;51.67;101605.42;2425994;81;25695;-77
2021/03/02 08:15:53;;;;;;;42.05;25.92;;;;;;;11.26;51.60;101599.02;2426130;81;26311;-77
2021/03/02 08:19:47;;;;;;;42.98;25.57;;;;;;;11.32;51.54;101613.63;2431244;80;25757;-76
2021/03/02 08:23:08;;;;;;;44.05;25.68;;;;;;;11.39;51.45;101612.58;2435285;81;25713;-78
2021/03/02 08:26:34;;;;;;;43.92;24.32;;;;;;;11.42;51.38;101610.98;2407000;81;25639;-89
2021/03/02 08:29:55;;;;;;;42.23;25.48;;;;;;;11.49;51.37;101612.11;2416667;79;25510;-75
2021/03/02 08:33:20;;;;;;;40.85;25.72;;;;;;;11.53;51.24;101607.48;2427012;81;25639;-76
2021/03/02 08:36:48;;;;;;;43.33;24.65;;;;;;;11.58;51.23;101609.45;2392264;81;25514;-79
2021/03/02 08:40:15;;;;;;;43.38;27.73;;;;;;;11.66;51.13;101625.41;2381345;83;28711;-76
2021/03/02 08:43:36;;;;;;;44.80;25.85;;;;;;;11.71;51.03;101630.42;2379816;81;25598;-82
2021/03/02 08:47:02;;;;;;;40.98;25.43;;;;;;;11.76;50.93;101641.03;2390096;81;25728;-75
2021/03/02 08:50:34;;;;;;;40.08;25.70;;;;;;;11.81;50.92;101639.47;2422448;81;25620;-82
2021/03/02 08:53:56;;;;;;;36.85;22.40;;;;;;;11.90;50.83;101632.03;2424218;81;25198;-78
2021/03/02 08:57:18;;;;;;;36.17;23.38;;;;;;;12.10;50.76;101640.63;2435154;80;25572;-79
2021/03/02 09:00:39;;;;;;;38.10;23.70;;;;;;;12.25;50.59;101635.98;2424455;80;25674;-81
2021/03/02 09:04:17;;;;;;;42.10;24.47;;;;;;;12.36;50.50;101638.09;2424693;81;25658;-80
2021/03/02 09:07:39;;;;;;;41.50;24.75;;;;;;;12.46;50.30;101645.02;2424725;81;25714;-80
2021/03/02 09:11:03;;;;;;;38.13;25.05;;;;;;;12.62;50.21;101650.39;2423995;81;25673;-77
2021/03/02 09:14:36;;;;;;;39.70;24.90;;;;;;;12.69;50.03;101655.00;2390059;82;25770;-76
2021/03/02 09:18:18;;;;;;;39.18;25.52;;;;;;;12.73;49.95;101658.62;2440779;80;25274;-76
2021/03/02 09:22:07;;;;;;;40.10;25.08;;;;;;;12.86;49.78;101658.21;2392914;81;25675;-74
2021/03/02 09:25:32;;;;;;;42.83;26.87;;;;;;;13.10;49.55;101659.46;2403246;81;25748;-76
2021/03/02 09:29:02;;;;;;;38.35;24.67;;;;;;;13.21;49.35;101655.46;2454941;79;25615;-80
2021/03/02 09:32:32;;;;;;;36.75;24.07;;;;;;;13.29;49.22;101664.02;2379832;82;25494;-73
2021/03/02 09:35:54;;;;;;;34.08;23.07;;;;;;;13.41;49.03;101668.36;2400576;81;25693;-73
2021/03/02 09:39:24;;;;;;;39.55;23.62;;;;;;;13.37;48.99;101667.80;2413680;81;25914;-73
2021/03/02 09:42:57;;;;;;;37.28;23.90;;;;;;;13.49;48.93;101670.80;2444381;80;25660;-77
2021/03/02 09:46:19;;;;;;;38.40;23.20;;;;;;;13.62;48.77;101665.53;2443528;80;25848;-75
2021/03/02 09:49:49;;;;;;;36.30;24.72;;;;;;;13.87;48.52;101667.17;2338795;82;25734;-76
2021/03/02 09:53:17;;;;;;;36.80;22.67;;;;;;;14.08;48.36;101661.72;2336149;84;25772;-77
2021/03/02 09:57:02;;;;;;;37.90;23.70;;;;;;;14.20;48.16;101658.55;2604833;76;30709;-76
2021/03/02 10:00:31;;;;;;;35.03;23.80;;;;;;;14.41;47.98;101661.38;2557970;77;25648;-75
2021/03/02 10:03:54;;;;;;;34.48;23.20;;;;;;;14.65;47.85;101657.70;2554031;77;25522;-76
2021/03/02 10:07:15;;;;;;;35.80;23.35;;;;;;;15.71;47.59;101659.95;2553580;77;25255;-76
2021/03/02 10:10:38;;;;;;;34.92;22.45;;;;;;;16.63;46.45;101662.31;2553685;77;25625;-78
2021/03/02 10:14:05;;;;;;;32.03;22.52;;;;;;;16.67;45.83;101661.51;2525848;77;26438;-76
2021/03/02 10:17:35;;;;;;;35.58;23.15;;;;;;;16.94;45.48;101662.48;2502249;77;25648;-77
2021/03/02 10:21:08;;;;;;;36.08;23.15;;;;;;;17.14;45.07;101665.47;2494842;78;25732;-75
2021/03/02 10:24:40;;;;;;;44.55;27.22;;;;;;;17.68;44.68;101652.70;2507225;78;25602;-82
2021/03/02 10:28:02;;;;;;;42.83;27.55;;;;;;;18.25;42.72;101651.76;2482683;78;25322;-79
2021/03/02 10:31:35;;;;;;;34.45;19.52;;;;;;;18.24;41.50;101655.27;2460590;80;25409;-78
2021/03/02 10:34:54;;;;;;;45.40;28.98;;;;;;;18.91;43.06;101643.28;2461046;80;25850;-77
2021/03/02 10:38:16;;;;;;;47.75;28.80;;;;;;;19.83;40.67;101648.41;2461333;80;25319;-77
2021/03/02 10:41:38;;;;;;;46.80;28.20;;;;;;;20.12;40.19;101657.39;2454389;80;25125;-78
2021/03/02 10:45:00;;;;;;;42.83;27.87;;;;;;;20.60;38.73;101656.27;2429324;80;25744;-80
2021/03/02 10:48:23;;;;;;;38.02;27.50;;;;;;;21.13;37.49;101648.84;2426239;81;25281;-81
2021/03/02 10:51:45;;;;;;;37.13;24.82;;;;;;;21.16;36.20;101644.43;2402488;80;25297;-81
2021/03/02 10:55:08;;;;;;;39.73;25.75;;;;;;;21.24;37.10;101643.09;2505396;78;25788;-80
2021/03/02 10:58:29;;;;;;;39.83;27.75;;;;;;;21.38;36.04;101639.14;2503662;78;25608;-79
2021/03/02 11:01:51;;;;;;;38.33;22.95;;;;;;;21.36;35.23;101636.91;2451544;80;25637;-78
2021/03/02 11:05:14;;;;;;;34.98;23.15;;;;;;;21.75;35.74;101629.78;2451768;79;25745;-78
2021/03/02 11:08:35;;;;;;;34.67;25.52;;;;;;;22.31;35.65;101620.31;2450755;80;25537;-75
2021/03/02 11:11:57;;;;;;;43.10;27.05;;;;;;;23.14;34.66;101610.44;2450955;80;25703;-79
2021/03/02 11:15:19;;;;;;;33.48;23.57;;;;;;;23.47;33.55;101603.92;2451108;80;25629;-78
2021/03/02 11:18:41;;;;;;;36.63;24.12;;;;;;;22.69;32.73;101606.35;2462929;78;25576;-76
2021/03/02 11:22:03;;;;;;;31.62;24.45;;;;;;;22.76;32.59;101597.44;2467546;80;25589;-75
2021/03/02 11:25:25;;;;;;;28.42;21.70;;;;;;;22.99;31.56;101592.84;2467817;80;25596;-79
2021/03/02 11:28:46;;;;;;;25.00;19.17;;;;;;;22.92;32.35;101600.87;2422350;81;25821;-80
2021/03/02 11:32:08;;;;;;;28.23;21.40;;;;;;;22.66;32.82;101595.73;2467983;80;25679;-84
2021/03/02 11:35:34;;;;;;;26.97;20.30;;;;;;;22.77;33.18;101602.73;2467699;78;25864;-79
2021/03/02 11:38:55;;;;;;;28.87;21.77;;;;;;;23.15;32.62;101605.55;2467667;80;25584;-77
2021/03/02 11:42:19;;;;;;;35.40;24.75;;;;;;;23.29;32.52;101605.45;2467276;80;25901;-75
2021/03/02 11:45:42;;;;;;;31.82;24.63;;;;;;;23.24;31.18;101604.14;2424478;81;25645;-77
2021/03/02 11:49:04;;;;;;;32.98;24.10;;;;;;;23.03;31.53;101593.25;2467048;78;25733;-78
2021/03/02 11:52:28;;;;;;;37.50;24.40;;;;;;;23.08;31.26;101590.54;2467445;80;25714;-76
2021/03/02 11:55:50;;;;;;;33.02;23.45;;;;;;;23.20;30.71;101600.20;2467406;79;25640;-75
2021/03/02 11:59:12;;;;;;;25.60;20.20;;;;;;;23.01;30.88;101598.14;2469165;78;25718;-78
2021/03/02 12:02:34;;;;;;;29.15;19.02;;;;;;;23.16;31.48;101598.02;2494411;79;25625;-80
2021/03/02 12:05:55;;;;;;;33.42;24.40;;;;;;;23.82;33.11;101605.80;2477356;78;25688;-79
2021/03/02 12:09:20;;;;;;;37.63;23.55;;;;;;;23.74;30.73;101588.12;2477786;79;25739;-77
2021/03/02 12:12:44;;;;;;;29.25;23.00;;;;;;;23.57;29.28;101599.39;2502539;79;25669;-77
2021/03/02 12:16:06;;;;;;;26.37;18.65;;;;;;;23.17;30.89;101594.91;2502600;79;25573;-81
2021/03/02 12:19:29;;;;;;;23.95;17.62;;;;;;;23.49;32.66;101585.26;2502524;79;25716;-77
2021/03/02 12:22:56;;;;;;;36.77;24.65;;;;;;;23.52;31.78;101578.16;2502668;79;25631;-80
2021/03/02 12:26:17;;;;;;;30.00;22.87;;;;;;;22.54;29.86;101573.64;2502469;79;25658;-79
2021/03/02 12:29:41;;;;;;;31.65;19.98;;;;;;;21.58;32.38;101572.77;2502595;79;25543;-84
2021/03/02 12:33:06;;;;;;;30.25;20.48;;;;;;;22.05;32.87;101570.38;2478518;79;25679;-76
2021/03/02 12:36:29;;;;;;;28.15;20.60;;;;;;;22.35;32.48;101564.05;2472209;79;25371;-81
2021/03/02 12:39:51;;;;;;;31.80;19.10;;;;;;;22.48;33.03;101566.19;2502762;79;25280;-80
2021/03/02 12:43:19;;;;;;;26.30;19.45;;;;;;;22.59;32.98;101566.98;2502441;79;25610;-77
2021/03/02 12:47:00;;;;;;;28.77;18.75;;;;;;;22.66;32.84;101562.51;2498188;78;25621;-77
2021/03/02 12:50:27;;;;;;;27.15;18.70;;;;;;;23.26;32.85;101558.45;2478200;79;25731;-82
2021/03/02 12:53:51;;;;;;;23.57;17.90;;;;;;;23.75;32.36;101559.71;2444276;81;25567;-81
2021/03/02 12:57:18;;;;;;;31.20;19.00;;;;;;;24.35;32.12;101565.13;2487362;79;25722;-81
2021/03/02 13:00:44;;;;;;;25.45;19.82;;;;;;;24.60;31.04;101567.44;2488647;77;25804;-84
2021/03/02 13:04:11;;;;;;;29.00;20.70;;;;;;;24.06;30.82;101557.98;2490256;79;25712;-84
2021/03/02 13:07:35;;;;;;;22.62;18.70;;;;;;;23.77;31.05;101545.95;2470345;79;25604;-78
2021/03/02 13:10:59;;;;;;;26.17;17.77;;;;;;;23.93;31.10;101555.96;2461965;78;25823;-78
2021/03/02 13:14:20;;;;;;;29.48;19.52;;;;;;;23.77;31.08;101554.81;2434435;81;25665;-82
2021/03/02 13:17:44;;;;;;;21.27;15.95;;;;;;;23.83;31.12;101556.52;2445536;79;25656;-83
2021/03/02 13:21:06;;;;;;;22.70;16.00;;;;;;;24.22;31.40;101556.42;2486467;79;25707;-78
2021/03/02 13:24:27;;;;;;;20.20;16.23;;;;;;;24.64;30.72;101559.39;2477337;79;25626;-77
2021/03/02 13:27:55;;;;;;;22.62;17.42;;;;;;;24.94;30.04;101561.09;2435127;78;25585;-79
2021/03/02 13:31:18;;;;;;;28.23;17.50;;;;;;;24.78;29.50;101553.83;2467608;79;25885;-80
2021/03/02 13:34:47;;;;;;;22.77;16.05;;;;;;;24.96;29.53;101560.63;2467317;80;25819;-86
2021/03/02 13:38:10;;;;;;;21.68;15.40;;;;;;;25.46;29.05;101548.18;2472782;79;25674;-86
2021/03/02 13:41:33;;;;;;;21.73;14.23;;;;;;;25.77;28.70;101542.22;2490334;79;25595;-84
2021/03/02 13:45:01;;;;;;;22.25;13.83;;;;;;;25.93;28.30;101546.36;2490481;78;25351;-82
2021/03/02 13:48:23;;;;;;;18.80;14.03;;;;;;;26.03;28.05;101546.58;2490379;79;25683;-82
2021/03/02 13:51:49;;;;;;;20.55;14.83;;;;;;;26.09;27.80;101541.57;2490213;79;25331;-84
2021/03/02 13:55:14;;;;;;;19.53;13.63;;;;;;;26.15;27.71;101530.70;2489881;79;25320;-81
2021/03/02 13:58:41;;;;;;;17.30;13.95;;;;;;;26.20;27.55;101536.84;2490083;78;25604;-83
2021/03/02 14:02:04;;;;;;;18.48;12.90;;;;;;;26.27;27.38;101533.11;2488138;78;25785;-82
2021/03/02 14:05:28;;;;;;;16.70;12.70;;;;;;;26.63;27.25;101529.61;2497298;79;25702;-84
2021/03/02 14:08:50;;;;;;;15.85;12.88;;;;;;;26.77;26.74;101540.41;2497094;78;25601;-82
2021/03/02 14:12:13;;;;;;;20.75;13.88;;;;;;;26.60;26.55;101540.83;2499176;78;25706;-85
2021/03/02 14:15:35;;;;;;;15.40;13.48;;;;;;;26.37;26.55;101540.47;2499666;79;25524;-81
2021/03/02 14:18:58;;;;;;;17.55;13.83;;;;;;;26.14;26.38;101540.53;2468827;79;25684;-80
2021/03/02 14:22:23;;;;;;;23.83;15.43;;;;;;;25.86;26.58;101538.06;2497974;79;25229;-83
2021/03/02 14:25:49;;;;;;;25.20;15.75;;;;;;;25.69;26.78;101537.05;2498867;79;25604;-83
2021/03/02 14:29:17;;;;;;;22.52;15.70;;;;;;;25.64;26.90;101537.11;2497814;79;25356;-82
2021/03/02 14:32:43;;;;;;;21.12;17.42;;;;;;;25.34;27.01;101539.94;2497654;79;25455;-81
2021/03/02 14:36:07;;;;;;;;;;;;;;;24.77;27.35;101546.72;2500254;79;25634;-80
2021/03/02 14:39:29;;;;;;;22.15;16.57;;;;;;;24.21;27.66;101546.67;2468023;79;25739;-82
2021/03/02 14:42:59;;;;;;;25.45;17.92;;;;;;;23.67;28.19;101543.80;2489217;79;25704;-83
2021/03/02 14:46:24;;;;;;;23.47;17.37;;;;;;;23.23;28.53;101549.17;2424547;81;25652;-82
2021/03/02 14:50:22;;;;;;;22.48;18.48;;;;;;;22.81;28.91;101560.62;2424912;81;25613;-83
2021/03/02 14:53:53;;;;;;;23.38;18.35;;;;;;;22.38;29.25;101550.75;2339446;80;25253;-82
2021/03/02 14:57:31;;;;;;;;;;;;;;;;;;;;;
2021/03/02 15:03:47;;;;;;;27.07;19.95;;;;;;;21.33;30.36;101574.12;2555317;77;25407;-80
2021/03/02 15:07:14;;;;;;;24.55;18.67;;;;;;;20.93;30.67;101575.93;2501064;78;25603;-81
2021/03/02 15:10:36;;;;;;;29.50;19.92;;;;;;;20.57;31.03;101576.33;2472032;79;25663;-81
2021/03/02 15:13:59;;;;;;;27.82;19.12;;;;;;;20.27;31.32;101566.08;2472194;79;25620;-82
2021/03/02 15:17:23;;;;;;;28.10;20.05;;;;;;;19.99;31.54;101572.18;2549905;77;25705;-82
2021/03/02 15:20:46;;;;;;;27.93;19.95;;;;;;;19.71;31.76;101570.74;2504018;79;25565;-82
2021/03/02 15:24:11;;;;;;;30.52;18.60;;;;;;;19.41;32.04;101572.73;2544683;77;25635;-81
2021/03/02 15:27:35;;;;;;;27.02;19.37;;;;;;;19.14;32.31;101573.88;2503667;78;25635;-82
2021/03/02 15:31:04;;;;;;;28.70;19.87;;;;;;;18.87;32.55;101579.39;2517041;77;25342;-81
2021/03/02 15:34:29;;;;;;;26.60;19.02;;;;;;;18.61;32.84;101583.07;2503546;79;25637;-79
2021/03/02 15:37:51;;;;;;;29.00;20.85;;;;;;;18.33;33.11;101585.87;2549556;77;25454;-83